createdAt,value
2018-04-13T00:00:18.747Z,85.70
2018-04-13T00:01:18.742Z,92.60
2018-04-13T00:02:18.734Z,96.10
2018-04-13T00:03:18.727Z,88.70
2018-04-13T00:04:18.718Z,96.80
2018-04-13T00:05:18.711Z,100.90
2018-04-13T00:06:18.704Z,107.00
2018-04-13T00:07:18.699Z,93.60
2018-04-13T00:08:18.695Z,99.30
2018-04-13T00:09:18.688Z,92.60
2018-04-13T00:10:18.680Z,96.60
2018-04-13T00:11:18.673Z,90.10
2018-04-13T00:12:18.673Z,92.80
2018-04-13T00:13:18.662Z,93.70
2018-04-13T00:14:18.662Z,86.90
2018-04-13T00:15:18.649Z,94.80
2018-04-13T00:16:18.642Z,96.20
2018-04-13T00:17:18.635Z,95.60
2018-04-13T00:18:18.624Z,93.80
2018-04-13T00:19:18.617Z,98.40
2018-04-13T00:20:18.617Z,93.90
2018-04-13T00:21:18.613Z,98.80
2018-04-13T00:22:18.603Z,91.50
2018-04-13T00:23:18.598Z,96.70
2018-04-13T00:24:18.590Z,96.20
2018-04-13T00:25:18.604Z,97.20
2018-04-13T00:26:18.573Z,99.90
2018-04-13T00:27:18.570Z,91.00
2018-04-13T00:28:18.568Z,98.00
2018-04-13T00:29:18.561Z,96.40
2018-04-13T00:30:18.555Z,92.10
2018-04-13T00:31:18.552Z,104.10
2018-04-13T00:32:18.547Z,103.60
2018-04-13T00:33:18.532Z,97.10
2018-04-13T00:34:18.526Z,97.70
2018-04-13T00:35:18.519Z,105.30
2018-04-13T00:36:18.516Z,103.80
2018-04-13T00:37:18.508Z,104.90
2018-04-13T00:38:18.501Z,116.70
2018-04-13T00:39:18.493Z,110.80
2018-04-13T00:40:18.488Z,101.00
2018-04-13T00:41:18.507Z,110.70
2018-04-13T00:42:18.473Z,103.50
2018-04-13T00:43:18.472Z,101.70
2018-04-13T00:44:18.463Z,92.40
2018-04-13T00:45:18.458Z,98.30
2018-04-13T00:46:18.448Z,98.30
2018-04-13T00:47:18.441Z,104.30
2018-04-13T00:48:18.435Z,112.10
2018-04-13T00:49:18.430Z,111.00
2018-04-13T00:50:18.423Z,95.90
2018-04-13T00:51:18.418Z,97.80
2018-04-13T00:52:18.412Z,95.30
2018-04-13T00:53:18.403Z,104.10
2018-04-13T00:54:18.397Z,104.70
2018-04-13T00:55:18.388Z,104.10
2018-04-13T00:56:18.384Z,109.90
2018-04-13T00:57:18.378Z,112.50
2018-04-13T00:58:18.370Z,106.20
2018-04-13T00:59:18.365Z,112.90
2018-04-13T01:00:18.355Z,105.30
2018-04-13T01:01:18.350Z,100.30
2018-04-13T01:02:18.345Z,107.10
2018-04-13T01:03:18.337Z,110.60
2018-04-13T01:04:18.334Z,97.80
2018-04-13T01:05:18.327Z,110.70
2018-04-13T01:06:18.320Z,102.10
2018-04-13T01:07:18.309Z,95.60
2018-04-13T01:08:18.307Z,108.20
2018-04-13T01:09:18.300Z,103.50
2018-04-13T01:10:18.291Z,111.40
2018-04-13T01:11:18.286Z,104.30
2018-04-13T01:12:18.278Z,93.50
2018-04-13T01:13:18.279Z,100.00
2018-04-13T01:14:18.265Z,94.20
2018-04-13T01:15:18.256Z,98.00
2018-04-13T01:16:33.077Z,102.60
2018-04-13T01:17:18.245Z,104.80
2018-04-13T01:18:18.237Z,95.10
2018-04-13T01:19:18.231Z,100.40
2018-04-13T01:20:18.227Z,118.10
2018-04-13T01:21:18.217Z,111.90
2018-04-13T01:22:18.210Z,111.70
2018-04-13T01:23:18.205Z,108.80
2018-04-13T01:24:18.199Z,101.60
2018-04-13T01:25:18.192Z,102.20
2018-04-13T01:26:18.186Z,99.70
2018-04-13T01:27:18.179Z,105.20
2018-04-13T01:28:18.169Z,106.10
2018-04-13T01:29:18.162Z,100.50
2018-04-13T01:30:18.165Z,99.10
2018-04-13T01:31:18.157Z,97.60
2018-04-13T01:32:18.148Z,102.50
2018-04-13T01:33:18.140Z,102.40
2018-04-13T01:34:18.134Z,94.10
2018-04-13T01:35:18.121Z,103.80
2018-04-13T01:36:18.116Z,105.40
2018-04-13T01:37:18.110Z,103.40
2018-04-13T01:38:18.105Z,103.50
2018-04-13T01:39:18.099Z,108.60
2018-04-13T01:40:18.092Z,108.70
2018-04-13T01:41:18.086Z,103.80
2018-04-13T01:42:18.078Z,105.00
2018-04-13T01:43:18.068Z,105.00
2018-04-13T01:44:18.067Z,102.20
2018-04-13T01:45:18.063Z,103.00
2018-04-13T01:46:18.052Z,105.60
2018-04-13T01:47:18.046Z,106.00
2018-04-13T01:48:18.039Z,101.50
2018-04-13T01:49:18.030Z,99.20
2018-04-13T01:50:18.021Z,98.30
2018-04-13T01:51:18.017Z,108.60
2018-04-13T01:52:18.013Z,114.00
2018-04-13T01:53:18.007Z,103.20
2018-04-13T01:54:17.998Z,103.00
2018-04-13T01:55:17.994Z,100.60
2018-04-13T01:56:17.982Z,108.30
2018-04-13T01:57:17.982Z,104.70
2018-04-13T01:58:17.980Z,104.10
2018-04-13T01:59:17.966Z,115.90
2018-04-13T02:00:17.959Z,128.40
2018-04-13T02:01:17.951Z,116.30
2018-04-13T02:02:17.942Z,111.70
2018-04-13T02:03:17.935Z,105.80
2018-04-13T02:04:17.928Z,105.30
2018-04-13T02:05:17.924Z,115.60
2018-04-13T02:06:17.918Z,115.00
2018-04-13T02:07:17.911Z,106.60
2018-04-13T02:08:17.907Z,104.30
2018-04-13T02:09:17.898Z,99.20
2018-04-13T02:10:17.889Z,104.40
2018-04-13T02:11:17.881Z,105.80
2018-04-13T02:12:17.879Z,125.10
2018-04-13T02:13:17.871Z,116.50
2018-04-13T02:14:17.863Z,111.40
2018-04-13T02:15:17.856Z,106.70
2018-04-13T02:16:17.846Z,116.10
2018-04-13T02:17:17.841Z,112.00
2018-04-13T02:18:17.836Z,115.10
2018-04-13T02:19:17.828Z,111.30
2018-04-13T02:20:17.822Z,116.40
2018-04-13T02:21:17.822Z,116.70
2018-04-13T02:22:17.806Z,106.20
2018-04-13T02:23:17.796Z,117.10
2018-04-13T02:24:17.797Z,110.00
2018-04-13T02:25:17.788Z,114.10
2018-04-13T02:26:17.783Z,113.40
2018-04-13T02:27:17.780Z,115.20
2018-04-13T02:28:17.764Z,123.60
2018-04-13T02:29:17.760Z,125.10
2018-04-13T02:30:17.751Z,121.30
2018-04-13T02:31:17.747Z,114.50
2018-04-13T02:32:17.740Z,109.50
2018-04-13T02:33:17.731Z,119.00
2018-04-13T02:34:17.775Z,121.10
2018-04-13T02:35:17.721Z,119.20
2018-04-13T02:36:17.711Z,112.40
2018-04-13T02:37:17.702Z,122.40
2018-04-13T02:38:17.696Z,125.30
2018-04-13T02:39:17.685Z,122.30
2018-04-13T02:40:17.684Z,118.90
2018-04-13T02:41:17.676Z,126.00
2018-04-13T02:42:17.672Z,114.90
2018-04-13T02:43:17.662Z,121.30
2018-04-13T02:44:17.652Z,127.10
2018-04-13T02:45:17.645Z,124.30
2018-04-13T02:46:17.643Z,117.50
2018-04-13T02:47:17.635Z,124.10
2018-04-13T02:48:17.628Z,120.70
2018-04-13T02:49:17.621Z,120.10
2018-04-13T02:50:17.613Z,114.40
2018-04-13T02:51:17.601Z,122.70
2018-04-13T02:52:17.597Z,108.40
2018-04-13T02:53:17.589Z,119.10
2018-04-13T02:54:17.584Z,114.90
2018-04-13T02:55:17.576Z,118.70
2018-04-13T02:56:17.570Z,128.50
2018-04-13T02:57:17.565Z,113.30
2018-04-13T02:58:17.550Z,106.50
2018-04-13T02:59:17.550Z,106.20
2018-04-13T03:00:17.542Z,125.40
2018-04-13T03:01:17.540Z,125.70
2018-04-13T03:02:17.525Z,116.30
2018-04-13T03:03:17.519Z,108.90
2018-04-13T03:04:17.513Z,112.40
2018-04-13T03:05:17.501Z,125.50
2018-04-13T03:06:17.496Z,130.20
2018-04-13T03:07:17.488Z,119.50
2018-04-13T03:08:17.483Z,130.90
2018-04-13T03:09:17.476Z,130.50
2018-04-13T03:10:17.470Z,119.30
2018-04-13T03:11:17.464Z,130.60
2018-04-13T03:12:17.455Z,116.30
2018-04-13T03:13:17.445Z,127.00
2018-04-13T03:14:17.440Z,114.40
2018-04-13T03:15:17.433Z,136.50
2018-04-13T03:16:17.428Z,118.90
2018-04-13T03:17:17.461Z,130.30
2018-04-13T03:18:17.414Z,129.30
2018-04-13T03:19:17.402Z,131.00
2018-04-13T03:20:17.391Z,125.50
2018-04-13T03:21:17.389Z,135.20
2018-04-13T03:22:17.383Z,114.20
2018-04-13T03:23:17.376Z,131.10
2018-04-13T03:24:17.370Z,128.00
2018-04-13T03:25:17.366Z,126.80
2018-04-13T03:26:17.355Z,126.90
2018-04-13T03:27:17.344Z,128.20
2018-04-13T03:28:17.341Z,129.50
2018-04-13T03:29:17.331Z,132.80
2018-04-13T03:30:17.324Z,127.80
2018-04-13T03:31:17.317Z,140.60
2018-04-13T03:32:17.310Z,128.80
2018-04-13T03:33:17.304Z,116.90
2018-04-13T03:34:17.295Z,127.40
2018-04-13T03:35:17.288Z,113.30
2018-04-13T03:36:17.279Z,108.90
2018-04-13T03:37:17.277Z,116.30
2018-04-13T03:38:17.266Z,105.10
2018-04-13T03:39:17.257Z,123.80
2018-04-13T03:40:17.250Z,122.60
2018-04-13T03:41:17.240Z,127.60
2018-04-13T03:42:17.234Z,133.90
2018-04-13T03:43:17.225Z,119.10
2018-04-13T03:44:17.221Z,118.80
2018-04-13T03:45:17.215Z,132.00
2018-04-13T03:46:17.208Z,137.00
2018-04-13T03:47:17.203Z,137.30
2018-04-13T03:48:17.199Z,120.30
2018-04-13T03:49:17.187Z,138.00
2018-04-13T03:50:17.176Z,131.40
2018-04-13T03:51:17.171Z,121.80
2018-04-13T03:52:17.163Z,126.40
2018-04-13T03:53:17.157Z,123.20
2018-04-13T03:54:17.146Z,130.50
2018-04-13T03:55:17.157Z,122.50
2018-04-13T03:56:17.133Z,133.40
2018-04-13T03:57:17.125Z,113.10
2018-04-13T03:58:17.119Z,125.70
2018-04-13T03:59:17.113Z,119.00
2018-04-13T04:00:17.105Z,120.30
2018-04-13T04:01:17.092Z,124.70
2018-04-13T04:02:17.085Z,120.10
2018-04-13T04:03:17.083Z,119.10
2018-04-13T04:04:17.073Z,117.00
2018-04-13T04:05:17.069Z,122.20
2018-04-13T04:06:17.061Z,119.60
2018-04-13T04:07:17.053Z,103.60
2018-04-13T04:08:17.046Z,124.60
2018-04-13T04:09:17.039Z,126.60
2018-04-13T04:10:17.027Z,138.10
2018-04-13T04:11:17.019Z,114.80
2018-04-13T04:12:17.016Z,130.90
2018-04-13T04:13:17.008Z,138.10
2018-04-13T04:14:17.001Z,141.90
2018-04-13T04:15:16.990Z,122.40
2018-04-13T04:16:16.986Z,139.00
2018-04-13T04:17:16.977Z,113.20
2018-04-13T04:18:16.967Z,134.30
2018-04-13T04:19:16.968Z,135.00
2018-04-13T04:20:16.956Z,129.50
2018-04-13T04:21:16.950Z,133.20
2018-04-13T04:22:16.939Z,132.10
2018-04-13T04:23:16.932Z,134.20
2018-04-13T04:24:16.926Z,125.00
2018-04-13T04:25:16.923Z,120.90
2018-04-13T04:26:16.912Z,122.90
2018-04-13T04:27:16.905Z,134.30
2018-04-13T04:28:16.897Z,143.60
2018-04-13T04:29:16.890Z,133.40
2018-04-13T04:30:16.879Z,136.60
2018-04-13T04:31:16.873Z,139.10
2018-04-13T04:32:16.884Z,119.20
2018-04-13T04:33:16.861Z,122.70
2018-04-13T04:34:16.855Z,126.50
2018-04-13T04:35:16.857Z,132.00
2018-04-13T04:36:16.836Z,129.10
2018-04-13T04:37:16.825Z,123.20
2018-04-13T04:38:16.821Z,115.50
2018-04-13T04:39:16.819Z,137.60
2018-04-13T04:40:16.809Z,129.50
2018-04-13T04:41:16.802Z,130.60
2018-04-13T04:42:16.788Z,123.00
2018-04-13T04:43:16.782Z,121.90
2018-04-13T04:44:16.774Z,118.50
2018-04-13T04:45:16.768Z,122.00
2018-04-13T04:46:16.766Z,120.30
2018-04-13T04:47:16.757Z,125.00
2018-04-13T04:48:16.768Z,118.50
2018-04-13T04:49:16.739Z,118.80
2018-04-13T04:50:16.732Z,119.00
2018-04-13T04:51:16.722Z,122.80
2018-04-13T04:52:16.718Z,118.90
2018-04-13T04:53:16.714Z,113.90
2018-04-13T04:54:16.707Z,117.00
2018-04-13T04:55:16.699Z,118.50
2018-04-13T04:56:16.688Z,127.80
2018-04-13T04:57:16.684Z,120.70
2018-04-13T04:58:16.672Z,137.00
2018-04-13T04:59:16.666Z,123.20
2018-04-13T05:00:16.662Z,126.00
2018-04-13T05:01:16.659Z,119.10
2018-04-13T05:02:16.648Z,117.40
2018-04-13T05:03:16.636Z,121.10
2018-04-13T05:04:16.630Z,121.50
2018-04-13T05:05:16.621Z,118.80
2018-04-13T05:06:16.618Z,119.90
2018-04-13T05:07:16.611Z,131.60
2018-04-13T05:08:16.607Z,123.00
2018-04-13T05:09:16.598Z,118.30
2018-04-13T05:10:16.588Z,110.00
2018-04-13T05:11:16.577Z,128.00
2018-04-13T05:12:16.576Z,126.30
2018-04-13T05:13:16.569Z,114.30
2018-04-13T05:14:16.560Z,120.10
2018-04-13T05:15:16.553Z,120.10
2018-04-13T05:16:16.545Z,120.40
2018-04-13T05:17:16.536Z,123.00
2018-04-13T05:18:16.527Z,118.60
2018-04-13T05:19:16.520Z,127.00
2018-04-13T05:20:16.522Z,123.40
2018-04-13T05:21:16.509Z,119.70
2018-04-13T05:22:16.503Z,125.80
2018-04-13T05:23:16.491Z,118.40
2018-04-13T05:24:16.486Z,118.20
2018-04-13T05:25:16.479Z,113.60
2018-04-13T05:26:16.469Z,114.10
2018-04-13T05:27:16.468Z,129.50
2018-04-13T05:28:16.457Z,124.10
2018-04-13T05:29:16.457Z,124.50
2018-04-13T05:30:16.440Z,133.40
2018-04-13T05:31:16.433Z,129.60
2018-04-13T05:32:16.429Z,129.20
2018-04-13T05:33:16.425Z,125.80
2018-04-13T05:34:16.417Z,128.10
2018-04-13T05:35:16.462Z,124.00
2018-04-13T05:36:16.402Z,118.40
2018-04-13T05:37:16.389Z,124.90
2018-04-13T05:38:16.382Z,111.90
2018-04-13T05:39:16.378Z,129.10
2018-04-13T05:40:16.377Z,125.00
2018-04-13T05:41:16.364Z,123.80
2018-04-13T05:42:16.359Z,115.60
2018-04-13T05:43:16.348Z,114.50
2018-04-13T05:44:16.341Z,127.10
2018-04-13T05:45:16.334Z,122.50
2018-04-13T05:46:16.329Z,121.00
2018-04-13T05:47:16.324Z,121.80
2018-04-13T05:48:16.315Z,114.40
2018-04-13T05:49:16.312Z,112.10
2018-04-13T05:50:16.296Z,127.90
2018-04-13T05:51:16.291Z,123.00
2018-04-13T05:52:16.285Z,115.20
2018-04-13T05:53:16.280Z,116.40
2018-04-13T05:54:16.275Z,110.70
2018-04-13T05:55:16.267Z,112.10
2018-04-13T05:56:16.259Z,112.00
2018-04-13T05:57:16.249Z,107.30
2018-04-13T05:58:16.241Z,106.00
2018-04-13T05:59:16.238Z,110.50
2018-04-13T06:00:16.276Z,117.00
2018-04-13T06:01:16.223Z,119.40
2018-04-13T06:02:16.220Z,120.80
2018-04-13T06:03:16.211Z,110.40
2018-04-13T06:04:16.206Z,119.70
2018-04-13T06:05:16.194Z,120.20
2018-04-13T06:06:16.191Z,119.90
2018-04-13T06:07:16.183Z,111.00
2018-04-13T06:08:16.176Z,103.80
2018-04-13T06:09:16.169Z,104.20
2018-04-13T06:10:16.159Z,106.40
2018-04-13T06:11:16.152Z,103.50
2018-04-13T06:12:16.149Z,107.10
2018-04-13T06:13:16.143Z,103.80
2018-04-13T06:14:16.139Z,96.30
2018-04-13T06:15:16.130Z,100.00
2018-04-13T06:16:16.123Z,103.80
2018-04-13T06:17:16.118Z,103.20
2018-04-13T06:18:16.112Z,101.70
2018-04-13T06:19:16.103Z,103.80
2018-04-13T06:20:16.098Z,101.00
2018-04-13T06:21:16.092Z,97.30
2018-04-13T06:22:16.083Z,94.10
2018-04-13T06:23:16.073Z,92.80
2018-04-13T06:24:16.147Z,103.20
2018-04-13T06:25:16.062Z,92.10
2018-04-13T06:26:16.063Z,94.00
2018-04-13T06:27:16.053Z,97.90
2018-04-13T06:28:16.047Z,96.40
2018-04-13T06:29:16.044Z,98.80
2018-04-13T06:30:16.057Z,89.80
2018-04-13T06:31:16.027Z,93.50
2018-04-13T06:32:16.021Z,90.90
2018-04-13T06:33:16.017Z,93.20
2018-04-13T06:34:16.008Z,103.90
2018-04-13T06:35:16.003Z,92.20
2018-04-13T06:36:15.997Z,92.10
2018-04-13T06:37:16.032Z,90.30
2018-04-13T06:38:15.980Z,90.00
2018-04-13T06:39:15.976Z,91.20
2018-04-13T06:40:15.973Z,98.90
2018-04-13T06:41:15.967Z,88.60
2018-04-13T06:42:15.961Z,83.70
2018-04-13T06:43:15.953Z,86.60
2018-04-13T06:44:15.944Z,88.20
2018-04-13T06:45:15.943Z,86.50
2018-04-13T06:46:15.934Z,87.40
2018-04-13T06:47:15.933Z,89.20
2018-04-13T06:48:15.924Z,92.70
2018-04-13T06:49:15.919Z,89.40
2018-04-13T06:50:15.912Z,87.20
2018-04-13T06:51:15.904Z,89.80
2018-04-13T06:52:15.897Z,86.50
2018-04-13T06:53:15.890Z,85.70
2018-04-13T06:54:15.885Z,88.70
2018-04-13T06:55:15.882Z,83.40
2018-04-13T06:56:15.878Z,90.70
2018-04-13T06:57:15.866Z,89.90
2018-04-13T06:58:15.884Z,79.10
2018-04-13T06:59:15.879Z,81.20
2018-04-13T07:00:15.850Z,79.30
2018-04-13T07:01:15.850Z,81.50
2018-04-13T07:02:15.841Z,82.70
2018-04-13T07:03:15.836Z,79.60
2018-04-13T07:04:15.826Z,77.60
2018-04-13T07:05:15.820Z,76.50
2018-04-13T07:06:15.813Z,75.90
2018-04-13T07:07:15.811Z,79.60
2018-04-13T07:08:15.806Z,76.00
2018-04-13T07:09:15.800Z,78.40
2018-04-13T07:10:15.798Z,73.60
2018-04-13T07:11:15.795Z,77.60
2018-04-13T07:12:15.781Z,75.90
2018-04-13T07:13:15.780Z,69.30
2018-04-13T07:14:15.773Z,77.10
2018-04-13T07:15:15.766Z,70.10
2018-04-13T07:16:15.764Z,72.40
2018-04-13T07:17:15.757Z,74.60
2018-04-13T07:18:15.746Z,68.90
2018-04-13T07:19:15.758Z,70.10
2018-04-13T07:20:15.737Z,65.50
2018-04-13T07:21:15.735Z,65.30
2018-04-13T07:22:15.728Z,64.50
2018-04-13T07:23:15.724Z,62.30
2018-04-13T07:24:15.714Z,62.90
2018-04-13T07:25:15.711Z,65.60
2018-04-13T07:26:15.706Z,68.40
2018-04-13T07:27:15.701Z,64.70
2018-04-13T07:28:15.696Z,65.40
2018-04-13T07:29:15.690Z,62.50
2018-04-13T07:30:15.695Z,64.60
2018-04-13T07:31:15.680Z,60.10
2018-04-13T07:32:15.676Z,61.10
2018-04-13T07:33:15.671Z,61.80
2018-04-13T07:34:15.681Z,61.50
2018-04-13T07:35:16.078Z,61.70
2018-04-13T07:36:15.658Z,63.10
2018-04-13T07:37:16.114Z,63.00
2018-04-13T07:38:15.645Z,60.80
2018-04-13T07:39:15.644Z,60.10
2018-04-13T07:40:15.639Z,62.80
2018-04-13T07:41:15.634Z,63.60
2018-04-13T07:42:15.632Z,59.00
2018-04-13T07:43:15.627Z,61.80
2018-04-13T07:44:15.616Z,62.00
2018-04-13T07:45:15.613Z,60.60
2018-04-13T07:46:15.611Z,65.50
2018-04-13T07:47:15.606Z,63.20
2018-04-13T07:48:15.603Z,61.20
2018-04-13T07:49:15.598Z,64.50
2018-04-13T07:50:15.594Z,61.40
2018-04-13T07:51:15.587Z,61.30
2018-04-13T07:52:15.582Z,65.10
2018-04-13T07:53:15.577Z,62.00
2018-04-13T07:54:15.576Z,61.70
2018-04-13T07:55:15.570Z,66.10
2018-04-13T07:56:15.566Z,61.90
2018-04-13T07:57:15.562Z,62.90
2018-04-13T07:58:15.555Z,63.10
2018-04-13T07:59:15.550Z,64.80
2018-04-13T08:00:15.549Z,63.00
2018-04-13T08:01:15.544Z,64.30
2018-04-13T08:02:15.540Z,68.40
2018-04-13T08:03:15.537Z,68.90
2018-04-13T08:04:15.535Z,66.70
2018-04-13T08:05:15.526Z,74.70
2018-04-13T08:06:15.519Z,65.50
2018-04-13T08:07:15.516Z,64.30
2018-04-13T08:08:15.514Z,66.40
2018-04-13T08:09:15.515Z,68.80
2018-04-13T08:10:16.050Z,69.80
2018-04-13T08:11:15.500Z,68.80
2018-04-13T08:12:15.604Z,70.30
2018-04-13T08:13:15.493Z,68.30
2018-04-13T08:14:15.482Z,65.30
2018-04-13T08:15:15.482Z,73.70
2018-04-13T08:16:15.480Z,66.80
2018-04-13T08:17:15.475Z,67.30
2018-04-13T08:18:15.471Z,69.50
2018-04-13T08:19:15.465Z,70.80
2018-04-13T08:20:15.470Z,69.50
2018-04-13T08:21:15.455Z,67.00
2018-04-13T08:22:15.453Z,70.20
2018-04-13T08:23:15.450Z,70.80
2018-04-13T08:24:15.444Z,67.50
2018-04-13T08:25:15.440Z,72.70
2018-04-13T08:26:15.434Z,65.20
2018-04-13T08:27:15.427Z,68.10
2018-04-13T08:28:15.424Z,70.80
2018-04-13T08:29:15.424Z,67.80
2018-04-13T08:30:15.417Z,64.50
2018-04-13T08:31:15.414Z,68.70
2018-04-13T08:32:15.408Z,64.70
2018-04-13T08:33:15.402Z,70.90
2018-04-13T08:34:15.423Z,67.50
2018-04-13T08:35:15.401Z,65.10
2018-04-13T08:36:15.394Z,64.10
2018-04-13T08:37:15.395Z,61.90
2018-04-13T08:38:15.383Z,60.70
2018-04-13T08:39:15.377Z,62.40
2018-04-13T08:40:15.377Z,61.20
2018-04-13T08:41:15.368Z,61.20
2018-04-13T08:42:15.366Z,62.70
2018-04-13T08:43:15.377Z,60.80
2018-04-13T08:44:15.360Z,55.30
2018-04-13T08:45:15.357Z,55.70
2018-04-13T08:46:15.349Z,56.10
2018-04-13T08:47:15.342Z,58.60
2018-04-13T08:48:15.354Z,53.70
2018-04-13T08:49:15.498Z,55.20
2018-04-13T08:50:15.334Z,53.50
2018-04-13T08:51:15.333Z,55.90
2018-04-13T08:52:15.334Z,56.80
2018-04-13T08:53:15.322Z,52.30
2018-04-13T08:54:15.318Z,52.60
2018-04-13T08:55:15.311Z,54.60
2018-04-13T08:56:15.310Z,54.00
2018-04-13T08:57:15.308Z,53.10
2018-04-13T08:58:15.303Z,50.30
2018-04-13T08:59:15.298Z,48.30
2018-04-13T09:00:15.310Z,48.00
2018-04-13T09:01:15.290Z,48.30
2018-04-13T09:02:15.284Z,46.90
2018-04-13T09:03:15.281Z,45.60
2018-04-13T09:04:15.283Z,43.10
2018-04-13T09:05:15.274Z,46.20
2018-04-13T09:06:15.269Z,45.40
2018-04-13T09:07:15.262Z,46.90
2018-04-13T09:08:15.259Z,44.10
2018-04-13T09:09:15.253Z,44.30
2018-04-13T09:10:15.252Z,43.10
2018-04-13T09:11:15.249Z,43.50
2018-04-13T09:12:15.247Z,40.80
2018-04-13T09:13:15.261Z,41.70
2018-04-13T09:14:15.236Z,42.40
2018-04-13T09:15:15.261Z,40.60
2018-04-13T09:16:15.229Z,41.60
2018-04-13T09:17:15.224Z,39.60
2018-04-13T09:18:15.221Z,43.40
2018-04-13T09:19:15.215Z,41.20
2018-04-13T09:20:15.208Z,42.00
2018-04-13T09:21:15.204Z,40.70
2018-04-13T09:22:15.204Z,40.40
2018-04-13T09:23:15.196Z,38.20
2018-04-13T09:24:15.195Z,41.20
2018-04-13T09:25:15.191Z,40.00
2018-04-13T09:26:15.187Z,38.60
2018-04-13T09:27:15.179Z,38.00
2018-04-13T09:28:15.179Z,39.00
2018-04-13T09:29:15.173Z,37.20
2018-04-13T09:30:15.174Z,36.50
2018-04-13T09:31:15.171Z,37.10
2018-04-13T09:32:15.164Z,37.20
2018-04-13T09:33:15.162Z,35.00
2018-04-13T09:34:15.153Z,36.30
2018-04-13T09:35:15.169Z,35.80
2018-04-13T09:36:15.146Z,33.90
2018-04-13T09:37:15.144Z,33.80
2018-04-13T09:38:15.142Z,32.00
2018-04-13T09:39:15.140Z,33.80
2018-04-13T09:40:15.140Z,33.40
2018-04-13T09:41:15.132Z,33.10
2018-04-13T09:42:15.130Z,32.70
2018-04-13T09:43:15.125Z,31.20
2018-04-13T09:44:15.122Z,33.40
2018-04-13T09:45:15.135Z,30.80
2018-04-13T09:46:15.120Z,30.40
2018-04-13T09:47:15.118Z,29.70
2018-04-13T09:48:15.111Z,28.30
2018-04-13T09:49:15.108Z,27.10
2018-04-13T09:50:15.105Z,27.10
2018-04-13T09:51:15.112Z,28.90
2018-04-13T09:52:15.105Z,26.60
2018-04-13T09:53:15.101Z,26.80
2018-04-13T09:54:15.099Z,26.60
2018-04-13T09:55:15.093Z,28.00
2018-04-13T09:56:15.089Z,27.40
2018-04-13T09:57:15.152Z,27.50
2018-04-13T09:58:15.088Z,28.00
2018-04-13T09:59:15.090Z,26.10
2018-04-13T10:00:15.083Z,25.70
2018-04-13T10:01:15.084Z,26.40
2018-04-13T10:02:15.081Z,26.00
2018-04-13T10:03:15.074Z,24.70
2018-04-13T10:04:15.077Z,24.70
2018-04-13T10:05:15.075Z,25.40
2018-04-13T10:06:15.072Z,26.20
2018-04-13T10:07:15.072Z,24.60
2018-04-13T10:08:15.070Z,23.70
2018-04-13T10:09:15.068Z,25.10
2018-04-13T10:10:15.059Z,23.00
2018-04-13T10:11:15.061Z,23.50
2018-04-13T10:12:15.062Z,24.00
2018-04-13T10:13:15.062Z,23.60
2018-04-13T10:14:15.059Z,24.80
2018-04-13T10:15:15.057Z,23.30
2018-04-13T10:16:15.054Z,23.90
2018-04-13T10:17:15.048Z,24.50
2018-04-13T10:18:15.045Z,23.90
2018-04-13T10:19:15.049Z,28.60
2018-04-13T10:20:15.043Z,24.30
2018-04-13T10:21:15.038Z,22.70
2018-04-13T10:22:15.042Z,23.20
2018-04-13T10:23:15.036Z,22.60
2018-04-13T10:24:15.036Z,22.90
2018-04-13T10:25:15.031Z,21.60
2018-04-13T10:26:15.032Z,23.40
2018-04-13T10:27:15.032Z,21.80
2018-04-13T10:28:15.035Z,24.50
2018-04-13T10:29:15.024Z,23.10
2018-04-13T10:30:15.028Z,25.20
2018-04-13T10:31:15.021Z,24.00
2018-04-13T10:32:15.020Z,24.10
2018-04-13T10:33:15.015Z,24.60
2018-04-13T10:34:15.012Z,23.40
2018-04-13T10:35:15.011Z,23.80
2018-04-13T10:36:15.005Z,23.00
2018-04-13T10:37:15.002Z,23.80
2018-04-13T10:38:14.999Z,23.20
2018-04-13T10:39:14.999Z,25.40
2018-04-13T10:40:14.998Z,22.80
2018-04-13T10:41:14.993Z,21.10
2018-04-13T10:42:14.991Z,23.70
2018-04-13T10:43:14.990Z,22.30
2018-04-13T10:44:14.981Z,21.70
2018-04-13T10:45:14.983Z,20.40
2018-04-13T10:46:14.983Z,20.20
2018-04-13T10:47:14.978Z,18.00
2018-04-13T10:48:14.999Z,17.40
2018-04-13T10:49:14.971Z,16.40
2018-04-13T10:50:14.965Z,17.40
2018-04-13T10:51:14.962Z,16.90
2018-04-13T10:52:14.970Z,16.30
2018-04-13T10:53:14.962Z,17.60
2018-04-13T10:54:14.957Z,15.50
2018-04-13T10:55:14.955Z,15.70
2018-04-13T10:56:14.952Z,17.50
2018-04-13T10:57:14.953Z,17.00
2018-04-13T10:58:14.943Z,16.60
2018-04-13T10:59:14.941Z,15.90
2018-04-13T11:00:14.940Z,16.20
2018-04-13T11:01:14.937Z,16.10
2018-04-13T11:02:14.933Z,18.80
2018-04-13T11:03:14.930Z,15.60
2018-04-13T11:04:14.925Z,15.40
2018-04-13T11:05:14.927Z,16.10
2018-04-13T11:06:14.917Z,15.30
2018-04-13T11:07:14.920Z,16.70
2018-04-13T11:08:14.917Z,14.90
2018-04-13T11:09:14.912Z,14.20
2018-04-13T11:10:14.936Z,14.90
2018-04-13T11:11:14.904Z,15.50
2018-04-13T11:12:14.900Z,14.30
2018-04-13T11:13:14.902Z,14.20
2018-04-13T11:14:14.897Z,16.20
2018-04-13T11:15:14.893Z,13.90
2018-04-13T11:16:14.891Z,14.60
2018-04-13T11:17:14.887Z,14.60
2018-04-13T11:18:14.885Z,14.70
2018-04-13T11:19:14.883Z,14.90
2018-04-13T11:20:14.874Z,13.50
2018-04-13T11:21:14.871Z,16.10
2018-04-13T11:22:14.881Z,15.20
2018-04-13T11:23:14.868Z,14.50
2018-04-13T11:24:14.861Z,16.10
2018-04-13T11:25:14.859Z,13.00
2018-04-13T11:26:14.860Z,13.80
2018-04-13T11:27:14.855Z,13.60
2018-04-13T11:28:14.853Z,14.40
2018-04-13T11:29:14.850Z,14.20
2018-04-13T11:30:14.845Z,12.70
2018-04-13T11:31:14.847Z,12.80
2018-04-13T11:32:14.838Z,12.40
2018-04-13T11:33:14.835Z,11.50
2018-04-13T11:34:14.832Z,12.60
2018-04-13T11:35:14.834Z,11.80
2018-04-13T11:36:14.827Z,11.80
2018-04-13T11:37:14.826Z,11.20
2018-04-13T11:38:14.819Z,11.20
2018-04-13T11:39:14.813Z,11.60
2018-04-13T11:40:14.813Z,14.80
2018-04-13T11:41:14.811Z,11.50
2018-04-13T11:42:14.806Z,11.90
2018-04-13T11:43:14.806Z,12.40
2018-04-13T11:44:14.802Z,10.80
2018-04-13T11:45:14.797Z,11.00
2018-04-13T11:46:14.791Z,11.10
2018-04-13T11:47:14.791Z,13.80
2018-04-13T11:48:14.788Z,11.00
2018-04-13T11:49:14.785Z,12.20
2018-04-13T11:50:14.782Z,11.20
2018-04-13T11:51:14.781Z,11.30
2018-04-13T11:52:14.773Z,11.60
2018-04-13T11:53:14.769Z,11.60
2018-04-13T11:54:14.764Z,11.20
2018-04-13T11:55:14.765Z,12.00
2018-04-13T11:56:14.764Z,11.90
2018-04-13T11:57:14.765Z,12.00
2018-04-13T11:58:14.748Z,12.90
2018-04-13T11:59:14.748Z,13.70
2018-04-13T12:00:14.747Z,12.30
2018-04-13T12:01:14.746Z,12.50
2018-04-13T12:02:14.740Z,13.90
2018-04-13T12:03:14.739Z,13.40
2018-04-13T12:04:14.738Z,13.00
2018-04-13T12:05:14.727Z,13.00
2018-04-13T12:06:14.725Z,13.30
2018-04-13T12:07:14.725Z,14.40
2018-04-13T12:08:14.724Z,13.20
2018-04-13T12:09:14.718Z,13.70
2018-04-13T12:10:14.714Z,14.20
2018-04-13T12:11:14.715Z,12.90
2018-04-13T12:12:14.706Z,13.60
2018-04-13T12:13:14.699Z,12.70
2018-04-13T12:14:14.700Z,13.30
2018-04-13T12:15:14.694Z,13.10
2018-04-13T12:16:14.698Z,13.50
2018-04-13T12:17:14.688Z,13.60
2018-04-13T12:18:14.684Z,13.60
2018-04-13T12:19:14.679Z,12.90
2018-04-13T12:20:14.674Z,13.20
2018-04-13T12:21:14.671Z,13.90
2018-04-13T12:22:14.696Z,13.10
2018-04-13T12:23:14.677Z,16.00
2018-04-13T12:24:14.661Z,15.40
2018-04-13T12:25:14.657Z,12.60
2018-04-13T12:26:14.649Z,14.90
2018-04-13T12:27:14.647Z,14.60
2018-04-13T12:28:14.647Z,12.80
2018-04-13T12:29:14.637Z,14.30
2018-04-13T12:30:14.633Z,15.40
2018-04-13T12:31:14.671Z,14.30
2018-04-13T12:32:14.624Z,14.00
2018-04-13T12:33:14.623Z,15.40
2018-04-13T12:34:14.617Z,14.00
2018-04-13T12:35:14.609Z,14.00
2018-04-13T12:36:14.608Z,14.90
2018-04-13T12:37:14.600Z,19.40
2018-04-13T12:38:14.604Z,17.30
2018-04-13T12:39:14.591Z,17.80
2018-04-13T12:40:14.586Z,16.40
2018-04-13T12:41:14.580Z,16.50